createdAt,value
2019-03-30T00:01:06.938Z,8.30
2019-03-30T00:03:37.702Z,8.40
2019-03-30T00:06:07.752Z,8.50
2019-03-30T00:08:40.298Z,8.30
2019-03-30T00:11:09.986Z,8.30
2019-03-30T00:13:40.733Z,8.30
2019-03-30T00:16:10.797Z,8.20
2019-03-30T00:18:42.112Z,8.20
2019-03-30T00:21:12.057Z,8.20
2019-03-30T00:23:41.633Z,8.20
2019-03-30T00:26:11.342Z,8.30
2019-03-30T00:28:44.466Z,8.40
2019-03-30T00:31:14.229Z,8.40
2019-03-30T00:33:45.548Z,8.10
2019-03-30T00:36:17.484Z,7.80
2019-03-30T00:38:49.498Z,7.60
2019-03-30T00:41:20.190Z,7.40
2019-03-30T00:43:49.846Z,7.30
2019-03-30T00:46:20.896Z,7.10
2019-03-30T00:48:52.605Z,6.90
2019-03-30T00:51:22.589Z,7.00
2019-03-30T00:53:55.037Z,7.20
2019-03-30T00:56:24.747Z,7.50
2019-03-30T00:58:54.306Z,7.60
2019-03-30T01:01:24.061Z,7.50
2019-03-30T01:03:53.718Z,7.70
2019-03-30T01:06:24.565Z,7.70
2019-03-30T01:08:54.272Z,7.80
2019-03-30T01:11:23.922Z,7.80
2019-03-30T01:13:53.611Z,7.80
2019-03-30T01:16:26.990Z,7.60
2019-03-30T01:18:58.981Z,7.40
2019-03-30T01:21:28.555Z,7.20
2019-03-30T01:23:58.224Z,7.20
2019-03-30T01:26:27.952Z,7.20
2019-03-30T01:28:58.338Z,7.20
2019-03-30T01:31:29.774Z,7.20
2019-03-30T01:33:59.497Z,7.30
2019-03-30T01:36:30.025Z,7.30
2019-03-30T01:38:59.999Z,7.30
2019-03-30T01:41:31.255Z,7.20
2019-03-30T01:44:00.921Z,7.10
2019-03-30T01:46:30.615Z,7.10
2019-03-30T01:49:02.776Z,7.00
2019-03-30T01:51:32.749Z,6.90
2019-03-30T01:54:02.459Z,6.70
2019-03-30T01:56:32.227Z,6.70
2019-03-30T01:59:01.889Z,6.70
2019-03-30T02:01:33.030Z,6.70
2019-03-30T02:04:03.525Z,6.80
2019-03-30T02:06:34.540Z,6.80
2019-03-30T02:09:05.567Z,6.80
2019-03-30T02:11:35.200Z,6.50
2019-03-30T02:14:07.534Z,6.30
2019-03-30T02:16:37.598Z,6.20
2019-03-30T02:19:07.313Z,6.20
2019-03-30T02:21:36.967Z,6.20
2019-03-30T02:24:06.629Z,6.30
2019-03-30T02:26:37.936Z,6.30
2019-03-30T02:29:10.618Z,6.40
2019-03-30T02:31:41.348Z,6.30
2019-03-30T02:34:11.061Z,6.90
2019-03-30T02:36:41.970Z,7.00
2019-03-30T02:39:12.881Z,7.10
2019-03-30T02:41:42.534Z,7.10
2019-03-30T02:44:15.763Z,7.20
2019-03-30T02:46:45.724Z,7.10
2019-03-30T02:49:18.089Z,7.30
2019-03-30T02:51:48.003Z,7.30
2019-03-30T02:54:17.665Z,7.30
2019-03-30T02:56:47.329Z,7.30
2019-03-30T02:59:17.060Z,7.30
2019-03-30T03:01:47.542Z,7.30
2019-03-30T03:04:17.208Z,7.30
2019-03-30T03:06:49.134Z,7.30
2019-03-30T03:09:19.615Z,7.30
2019-03-30T03:11:49.411Z,7.30
2019-03-30T03:14:19.021Z,7.30
2019-03-30T03:16:49.221Z,7.00
2019-03-30T03:19:18.858Z,6.90
2019-03-30T03:21:50.091Z,6.90
2019-03-30T03:24:19.858Z,6.90
2019-03-30T03:26:49.632Z,6.70
2019-03-30T03:29:19.318Z,6.70
2019-03-30T03:31:50.788Z,6.60
2019-03-30T03:34:20.456Z,6.60
2019-03-30T03:36:50.194Z,6.50
2019-03-30T03:39:19.886Z,6.50
2019-03-30T03:41:51.069Z,6.60
2019-03-30T03:44:22.255Z,6.60
2019-03-30T03:46:52.068Z,6.60
2019-03-30T03:49:21.701Z,6.60
2019-03-30T03:51:51.434Z,6.70
2019-03-30T03:54:21.371Z,6.80
2019-03-30T03:56:52.886Z,6.90
2019-03-30T03:59:26.002Z,7.00
2019-03-30T04:01:56.775Z,7.00
2019-03-30T04:04:28.295Z,7.20
2019-03-30T04:07:01.436Z,7.40
2019-03-30T04:09:33.073Z,7.60
2019-03-30T04:12:05.937Z,7.70
2019-03-30T04:14:38.265Z,7.70
2019-03-30T04:17:08.307Z,7.80
2019-03-30T04:19:38.276Z,7.80
2019-03-30T04:22:09.175Z,7.90
2019-03-30T04:24:38.896Z,7.90
2019-03-30T04:27:09.417Z,7.90
2019-03-30T04:29:39.370Z,8.00
2019-03-30T04:32:10.229Z,8.00
2019-03-30T04:34:39.953Z,7.80
2019-03-30T04:37:09.670Z,7.70
2019-03-30T04:39:40.773Z,7.70
2019-03-30T04:42:13.989Z,7.70
2019-03-30T04:44:43.627Z,7.60
2019-03-30T04:47:15.474Z,7.70
2019-03-30T04:49:45.353Z,7.70
2019-03-30T04:52:16.490Z,7.70
2019-03-30T04:54:47.964Z,7.80
2019-03-30T04:57:17.638Z,8.00
2019-03-30T04:59:47.475Z,8.00
2019-03-30T05:02:17.088Z,8.00
2019-03-30T05:04:47.090Z,7.90
2019-03-30T05:07:19.220Z,7.90
2019-03-30T05:09:50.444Z,7.90
2019-03-30T05:12:21.503Z,7.80
2019-03-30T05:14:51.376Z,7.70
2019-03-30T05:17:21.858Z,7.60
2019-03-30T05:19:53.903Z,7.40
2019-03-30T05:22:23.519Z,7.20
2019-03-30T05:24:53.221Z,7.10
2019-03-30T05:27:22.998Z,7.00
2019-03-30T05:29:54.119Z,7.00
2019-03-30T05:32:26.656Z,6.90
2019-03-30T05:34:56.335Z,6.70
2019-03-30T05:37:27.033Z,6.70
2019-03-30T05:39:57.028Z,6.80
2019-03-30T05:42:28.547Z,6.80
2019-03-30T05:44:58.327Z,6.70
2019-03-30T05:47:27.927Z,6.60
2019-03-30T05:49:57.503Z,6.60
2019-03-30T05:52:31.929Z,6.60
2019-03-30T05:55:01.607Z,6.70
2019-03-30T05:57:31.372Z,6.60
2019-03-30T06:00:01.039Z,6.70
2019-03-30T06:02:32.772Z,6.70
2019-03-30T06:05:03.726Z,6.70
2019-03-30T06:07:39.242Z,6.70
2019-03-30T06:10:09.311Z,6.80
2019-03-30T06:12:39.227Z,6.80
2019-03-30T06:15:09.252Z,6.80
2019-03-30T06:17:39.729Z,6.80
2019-03-30T06:20:09.367Z,6.80
2019-03-30T06:22:40.388Z,6.80
2019-03-30T06:25:11.350Z,6.80
2019-03-30T06:27:40.998Z,6.80
2019-03-30T06:30:22.036Z,6.80
2019-03-30T06:32:53.238Z,6.70
2019-03-30T06:35:23.344Z,6.80
2019-03-30T06:37:56.081Z,6.80
2019-03-30T06:40:27.349Z,6.80
2019-03-30T06:42:57.076Z,6.90
2019-03-30T06:45:27.589Z,7.10
2019-03-30T06:47:57.286Z,7.40
2019-03-30T06:50:27.200Z,7.50
2019-03-30T06:52:58.596Z,7.70
2019-03-30T06:55:28.723Z,7.90
2019-03-30T06:57:59.181Z,8.10
2019-03-30T07:00:35.937Z,8.30
2019-03-30T07:03:06.719Z,8.60
2019-03-30T07:05:45.372Z,8.60
2019-03-30T07:08:18.478Z,8.80
2019-03-30T07:10:51.260Z,8.80
2019-03-30T07:13:21.218Z,8.90
2019-03-30T07:15:52.707Z,8.90
2019-03-30T07:18:22.494Z,9.00
2019-03-30T07:20:52.249Z,9.20
2019-03-30T07:23:21.904Z,9.50
2019-03-30T07:25:51.526Z,10.00
2019-03-30T07:28:21.182Z,10.10
2019-03-30T07:30:52.639Z,10.20
2019-03-30T07:33:26.608Z,10.20
2019-03-30T07:35:57.904Z,10.20
2019-03-30T07:38:27.486Z,10.40
2019-03-30T07:40:59.189Z,10.80
2019-03-30T07:43:28.888Z,11.10
2019-03-30T07:45:58.660Z,11.30
2019-03-30T07:48:28.344Z,11.70
2019-03-30T07:50:57.990Z,12.30
2019-03-30T07:53:27.713Z,12.80
2019-03-30T07:56:08.392Z,13.00
2019-03-30T07:58:29.640Z,13.40
2019-03-30T08:00:59.824Z,14.20
2019-03-30T08:03:31.523Z,14.70
2019-03-30T08:06:01.258Z,15.10
2019-03-30T08:08:30.962Z,15.60
2019-03-30T08:11:02.111Z,16.00
2019-03-30T08:13:33.795Z,16.00
2019-03-30T08:16:03.525Z,16.00
2019-03-30T08:18:34.285Z,15.90
2019-03-30T08:21:06.815Z,16.00
2019-03-30T08:23:40.534Z,16.10
2019-03-30T08:26:08.177Z,16.30
2019-03-30T08:28:37.883Z,16.40
2019-03-30T08:31:07.567Z,16.40
2019-03-30T08:33:37.369Z,16.60
2019-03-30T08:36:08.449Z,16.70
2019-03-30T08:38:38.469Z,16.60
2019-03-30T08:41:08.132Z,16.40
2019-03-30T08:43:37.788Z,16.00
2019-03-30T08:46:07.567Z,15.70
2019-03-30T08:48:37.380Z,15.80
2019-03-30T08:51:07.062Z,15.80
2019-03-30T08:53:36.802Z,16.00
2019-03-30T08:56:06.449Z,16.30
2019-03-30T08:58:37.826Z,16.80
2019-03-30T09:01:07.527Z,17.10
2019-03-30T09:03:37.179Z,17.40
2019-03-30T09:06:06.856Z,17.30
2019-03-30T09:08:36.604Z,17.50
2019-03-30T09:11:06.983Z,17.80
2019-03-30T09:13:36.912Z,17.80
2019-03-30T09:16:06.595Z,17.80
2019-03-30T09:18:37.944Z,17.80
2019-03-30T09:21:11.873Z,17.90
2019-03-30T09:23:43.859Z,18.10
2019-03-30T09:26:16.727Z,18.20
2019-03-30T09:28:49.027Z,18.60
2019-03-30T09:31:21.285Z,19.20
2019-03-30T09:33:50.923Z,19.50
2019-03-30T09:36:20.657Z,19.60
2019-03-30T09:38:50.713Z,20.00
2019-03-30T09:41:20.826Z,20.20
2019-03-30T09:43:51.495Z,20.50
2019-03-30T09:46:22.966Z,20.50
2019-03-30T09:48:53.958Z,20.40
2019-03-30T09:51:24.768Z,20.40
2019-03-30T09:53:55.175Z,20.40
2019-03-30T09:56:25.743Z,20.30
2019-03-30T09:58:56.323Z,20.20
2019-03-30T10:01:25.977Z,20.10
2019-03-30T10:03:55.630Z,20.30
2019-03-30T10:06:34.277Z,20.60
2019-03-30T10:08:57.718Z,20.80
2019-03-30T10:11:27.376Z,20.80
2019-03-30T10:13:59.116Z,20.60
2019-03-30T10:16:28.904Z,20.90
2019-03-30T10:18:58.614Z,20.90
2019-03-30T10:21:29.262Z,21.20
2019-03-30T10:23:58.942Z,20.90
2019-03-30T10:26:31.044Z,21.00
2019-03-30T10:29:00.767Z,21.20
2019-03-30T10:31:30.472Z,21.20
2019-03-30T10:34:01.571Z,21.30
2019-03-30T10:36:31.501Z,21.20
2019-03-30T10:39:01.353Z,21.50
2019-03-30T10:41:31.008Z,21.40
2019-03-30T10:44:00.665Z,21.60
2019-03-30T10:46:31.194Z,21.60
2019-03-30T10:49:02.063Z,21.80
2019-03-30T10:51:32.934Z,22.10
2019-03-30T10:54:02.623Z,22.00
2019-03-30T10:56:32.624Z,22.10
2019-03-30T10:59:02.310Z,22.00
2019-03-30T11:01:32.063Z,21.60
2019-03-30T11:04:01.714Z,21.60
2019-03-30T11:06:31.604Z,22.00
2019-03-30T11:09:02.976Z,22.00
2019-03-30T11:11:32.717Z,21.90
2019-03-30T11:14:02.362Z,21.90
2019-03-30T11:16:32.120Z,21.90
2019-03-30T11:19:01.774Z,22.10
2019-03-30T11:21:32.754Z,22.10
2019-03-30T11:24:06.493Z,22.20
2019-03-30T11:26:42.111Z,22.50
2019-03-30T11:29:11.958Z,23.10
2019-03-30T11:31:41.603Z,23.20
2019-03-30T11:34:11.558Z,23.20
2019-03-30T11:36:41.367Z,22.80
2019-03-30T11:39:11.873Z,23.00
2019-03-30T11:41:41.681Z,23.20
2019-03-30T11:44:12.430Z,23.50
2019-03-30T11:46:42.294Z,23.80
2019-03-30T11:49:11.961Z,23.80
2019-03-30T11:51:41.577Z,23.60
2019-03-30T11:54:11.362Z,24.20
2019-03-30T11:56:41.067Z,23.70
2019-03-30T11:59:10.778Z,23.40
2019-03-30T12:01:41.868Z,23.20
2019-03-30T12:04:11.781Z,23.30
2019-03-30T12:06:41.799Z,23.50
2019-03-30T12:09:11.566Z,23.70
2019-03-30T12:11:41.168Z,24.00
2019-03-30T12:14:11.002Z,24.00
2019-03-30T12:16:40.680Z,24.10
2019-03-30T12:19:10.414Z,23.90
2019-03-30T12:21:40.326Z,23.60
2019-03-30T12:24:12.398Z,23.30
2019-03-30T12:26:42.542Z,23.40
2019-03-30T12:29:12.510Z,23.50
2019-03-30T12:31:42.245Z,23.40
2019-03-30T12:34:13.214Z,23.30
2019-03-30T12:36:43.453Z,23.40
2019-03-30T12:39:13.117Z,23.70
2019-03-30T12:41:45.261Z,23.90
2019-03-30T12:44:15.167Z,23.80
2019-03-30T12:46:44.915Z,23.80
2019-03-30T12:49:14.800Z,23.60
2019-03-30T12:51:44.528Z,23.20
2019-03-30T12:54:17.105Z,23.40
2019-03-30T12:56:47.156Z,23.40
2019-03-30T12:59:18.052Z,23.20
2019-03-30T13:01:48.070Z,22.90
2019-03-30T13:04:17.735Z,22.80
2019-03-30T13:06:47.403Z,23.20
2019-03-30T13:09:18.295Z,23.10
2019-03-30T13:11:50.821Z,22.90
2019-03-30T13:14:20.508Z,23.10
2019-03-30T13:16:51.341Z,23.10
2019-03-30T13:19:20.965Z,22.80
2019-03-30T13:21:53.043Z,23.00
2019-03-30T13:24:22.451Z,23.00
2019-03-30T13:26:52.184Z,23.00
2019-03-30T13:29:21.945Z,22.80
2019-03-30T13:31:51.776Z,22.80
2019-03-30T13:34:24.122Z,22.70
2019-03-30T13:36:55.766Z,22.70
2019-03-30T13:39:27.851Z,22.40
2019-03-30T13:41:57.986Z,22.40
2019-03-30T13:44:27.647Z,22.30
2019-03-30T13:46:57.310Z,22.10
2019-03-30T13:49:29.833Z,22.20
2019-03-30T13:51:59.671Z,22.80
2019-03-30T13:54:32.574Z,22.80
2019-03-30T13:57:02.950Z,22.90
2019-03-30T13:59:32.869Z,22.60
2019-03-30T14:02:02.574Z,22.50
2019-03-30T14:04:32.219Z,22.00
2019-03-30T14:07:01.834Z,22.00
2019-03-30T14:09:31.487Z,22.20
2019-03-30T14:12:02.055Z,22.00
2019-03-30T14:14:42.282Z,22.00
2019-03-30T14:17:12.059Z,22.30
2019-03-30T14:19:44.808Z,22.20
2019-03-30T14:22:18.739Z,22.30
2019-03-30T14:24:48.445Z,22.30
2019-03-30T14:27:20.909Z,22.20
2019-03-30T14:29:54.555Z,22.40
2019-03-30T14:32:25.503Z,22.60
2019-03-30T14:34:55.211Z,22.50
2019-03-30T14:37:25.208Z,22.00
2019-03-30T14:39:56.889Z,22.30
2019-03-30T14:42:27.033Z,22.30
2019-03-30T14:44:56.759Z,22.60
2019-03-30T14:47:26.385Z,22.70
2019-03-30T14:49:56.323Z,21.60
2019-03-30T14:52:26.291Z,22.30
2019-03-30T14:54:56.025Z,22.50
2019-03-30T14:57:25.681Z,22.40
2019-03-30T14:59:57.029Z,22.40
2019-03-30T15:02:27.148Z,22.40
2019-03-30T15:05:00.647Z,22.70
2019-03-30T15:07:30.642Z,22.90
2019-03-30T15:10:00.365Z,22.70
2019-03-30T15:12:30.376Z,23.00
2019-03-30T15:15:00.097Z,23.00
2019-03-30T15:17:30.634Z,22.90
2019-03-30T15:20:00.428Z,22.20
2019-03-30T15:22:31.686Z,21.90
2019-03-30T15:25:03.250Z,21.00
2019-03-30T15:27:32.998Z,21.10
2019-03-30T15:30:05.534Z,21.40
2019-03-30T15:32:35.479Z,21.20
2019-03-30T15:35:05.612Z,20.70
2019-03-30T15:37:36.519Z,20.90
2019-03-30T15:40:06.790Z,20.60
2019-03-30T15:42:39.889Z,20.40
2019-03-30T15:45:13.840Z,20.70
2019-03-30T15:47:43.591Z,21.10
2019-03-30T15:50:14.170Z,20.50
2019-03-30T15:52:44.923Z,20.60
2019-03-30T15:55:14.950Z,20.50
2019-03-30T15:57:47.315Z,20.40
2019-03-30T16:00:19.099Z,20.30
2019-03-30T16:02:50.844Z,20.30
2019-03-30T16:05:20.575Z,20.20
2019-03-30T16:07:51.013Z,20.20
2019-03-30T16:10:21.243Z,20.30
2019-03-30T16:12:51.985Z,20.10
2019-03-30T16:15:21.572Z,19.90
2019-03-30T16:17:51.237Z,19.80
2019-03-30T16:20:20.873Z,20.20
2019-03-30T16:22:50.757Z,20.20
2019-03-30T16:25:20.417Z,20.10
2019-03-30T16:27:50.869Z,20.20
2019-03-30T16:30:20.530Z,20.00
2019-03-30T16:32:50.326Z,19.70
2019-03-30T16:35:19.976Z,19.80
2019-03-30T16:37:50.058Z,19.50
2019-03-30T16:40:19.646Z,19.20
2019-03-30T16:42:50.510Z,19.00
2019-03-30T16:45:20.318Z,18.80
2019-03-30T16:47:53.518Z,18.30
2019-03-30T16:50:25.483Z,18.10
2019-03-30T16:52:55.526Z,18.00
2019-03-30T16:55:25.383Z,17.90
2019-03-30T16:57:55.115Z,17.70
2019-03-30T17:00:31.228Z,17.70
2019-03-30T17:03:02.990Z,17.50
2019-03-30T17:05:32.751Z,17.30
2019-03-30T17:08:03.267Z,17.40
2019-03-30T17:10:33.077Z,17.10
2019-03-30T17:13:03.387Z,16.90
2019-03-30T17:15:33.093Z,16.90
2019-03-30T17:18:04.439Z,16.80
2019-03-30T17:20:34.066Z,16.70
2019-03-30T17:23:03.730Z,16.50
2019-03-30T17:25:33.806Z,16.60
2019-03-30T17:28:06.767Z,16.40
2019-03-30T17:30:34.820Z,16.20
2019-03-30T17:33:04.927Z,16.00
2019-03-30T17:35:34.564Z,15.90
2019-03-30T17:38:04.229Z,15.80
2019-03-30T17:40:36.533Z,15.70
2019-03-30T17:43:06.324Z,15.60
2019-03-30T17:45:36.532Z,15.50
2019-03-30T17:48:06.369Z,15.40
2019-03-30T17:50:36.094Z,15.40
2019-03-30T17:53:05.744Z,15.30
2019-03-30T17:55:37.002Z,15.00
2019-03-30T17:58:13.243Z,14.80
2019-03-30T18:00:44.351Z,14.70
2019-03-30T18:03:14.044Z,14.70
2019-03-30T18:05:44.584Z,14.50
2019-03-30T18:08:14.240Z,14.50
2019-03-30T18:10:44.271Z,14.50
2019-03-30T18:13:13.949Z,14.30
2019-03-30T18:15:43.595Z,14.30
2019-03-30T18:18:15.538Z,14.20
2019-03-30T18:20:45.256Z,14.00
2019-03-30T18:23:16.687Z,13.90
2019-03-30T18:25:46.357Z,13.90
2019-03-30T18:28:27.362Z,14.00
2019-03-30T18:30:56.281Z,14.00
2019-03-30T18:33:28.617Z,13.80
2019-03-30T18:35:58.418Z,13.70
2019-03-30T18:38:31.806Z,13.70
2019-03-30T18:41:01.462Z,13.60
2019-03-30T18:43:32.467Z,13.40
2019-03-30T18:46:02.158Z,13.30
2019-03-30T18:48:31.881Z,13.30
2019-03-30T18:51:02.467Z,13.10
2019-03-30T18:53:32.218Z,13.00
2019-03-30T18:56:02.154Z,12.90
2019-03-30T18:58:41.584Z,12.70
2019-03-30T19:01:07.436Z,12.70
2019-03-30T19:03:37.532Z,12.70
2019-03-30T19:06:07.250Z,12.40
2019-03-30T19:08:37.004Z,12.40
2019-03-30T19:11:06.765Z,12.30
2019-03-30T19:13:37.258Z,12.10
2019-03-30T19:16:07.097Z,12.10
2019-03-30T19:18:38.858Z,12.10
2019-03-30T19:21:08.698Z,11.90
2019-03-30T19:23:38.439Z,11.70
2019-03-30T19:26:08.110Z,11.60
2019-03-30T19:28:37.901Z,11.70
2019-03-30T19:31:07.705Z,11.70
2019-03-30T19:33:37.449Z,11.50
2019-03-30T19:36:09.930Z,11.50
2019-03-30T19:38:38.580Z,11.60
2019-03-30T19:41:09.719Z,11.80
2019-03-30T19:43:39.401Z,11.60
2019-03-30T19:46:09.878Z,11.40
2019-03-30T19:48:39.577Z,11.60
2019-03-30T19:51:09.311Z,11.60
2019-03-30T19:53:39.584Z,11.40
2019-03-30T19:56:10.043Z,11.40
2019-03-30T19:58:42.342Z,11.40
2019-03-30T20:01:13.409Z,11.30
2019-03-30T20:03:43.123Z,11.40
2019-03-30T20:06:12.814Z,11.40
2019-03-30T20:08:44.680Z,11.30
2019-03-30T20:11:14.714Z,11.20
2019-03-30T20:13:44.411Z,11.20
2019-03-30T20:16:14.170Z,11.30
2019-03-30T20:18:43.850Z,11.30
2019-03-30T20:21:17.423Z,11.20
2019-03-30T20:23:47.083Z,11.20
2019-03-30T20:26:16.889Z,11.30
2019-03-30T20:28:49.117Z,11.30
2019-03-30T20:31:18.766Z,11.30
2019-03-30T20:33:48.926Z,11.30
2019-03-30T20:36:18.898Z,11.40
2019-03-30T20:38:48.581Z,11.30
2019-03-30T20:41:18.227Z,11.20
2019-03-30T20:43:47.923Z,11.20
2019-03-30T20:46:17.632Z,11.20
2019-03-30T20:48:47.262Z,11.10
2019-03-30T20:51:19.017Z,11.00
2019-03-30T20:53:49.015Z,11.10
2019-03-30T20:56:18.889Z,11.20
2019-03-30T20:58:48.577Z,11.00
2019-03-30T21:01:18.263Z,11.00
2019-03-30T21:03:50.305Z,10.90
2019-03-30T21:06:23.187Z,10.90
2019-03-30T21:08:52.920Z,10.90
2019-03-30T21:11:25.193Z,10.70
2019-03-30T21:13:56.750Z,10.70
2019-03-30T21:16:27.760Z,10.50
2019-03-30T21:18:58.106Z,10.50
2019-03-30T21:21:28.162Z,10.40
2019-03-30T21:23:57.817Z,10.40
2019-03-30T21:26:29.816Z,10.30
2019-03-30T21:29:00.547Z,10.20
2019-03-30T21:31:34.840Z,10.10
2019-03-30T21:34:09.689Z,10.00
2019-03-30T21:36:41.602Z,9.90
2019-03-30T21:39:16.206Z,9.70
2019-03-30T21:41:48.193Z,9.80
2019-03-30T21:44:22.165Z,9.80
2019-03-30T21:46:49.389Z,9.80
2019-03-30T21:49:19.103Z,9.90
2019-03-30T21:51:53.543Z,10.00
2019-03-30T21:54:23.187Z,9.90
2019-03-30T21:56:53.851Z,9.90
2019-03-30T21:59:23.519Z,9.80
2019-03-30T22:01:54.221Z,9.80
2019-03-30T22:04:27.355Z,9.60
2019-03-30T22:06:58.590Z,9.60
2019-03-30T22:09:28.362Z,9.50
2019-03-30T22:11:58.079Z,9.40
2019-03-30T22:14:27.741Z,9.30
2019-03-30T22:16:57.792Z,9.20
2019-03-30T22:19:27.454Z,9.20
2019-03-30T22:21:57.499Z,9.30
2019-03-30T22:24:28.758Z,9.20
2019-03-30T22:26:58.511Z,9.10
2019-03-30T22:29:28.460Z,9.00
2019-03-30T22:31:58.192Z,9.00
2019-03-30T22:34:27.903Z,9.00
2019-03-30T22:36:58.000Z,9.00
2019-03-30T22:39:27.658Z,8.90
2019-03-30T22:41:57.320Z,8.90
2019-03-30T22:44:26.982Z,8.90
2019-03-30T22:47:11.842Z,9.00
2019-03-30T22:49:43.812Z,8.90
2019-03-30T22:52:15.203Z,8.80
2019-03-30T22:54:45.847Z,8.70
2019-03-30T22:57:17.883Z,8.70
2019-03-30T22:59:47.878Z,8.60
2019-03-30T23:02:18.587Z,8.60
2019-03-30T23:04:48.669Z,8.60
2019-03-30T23:07:18.401Z,8.80
2019-03-30T23:09:51.244Z,8.80
2019-03-30T23:12:21.219Z,8.80
2019-03-30T23:14:52.269Z,8.70
2019-03-30T23:17:23.651Z,8.50
2019-03-30T23:19:53.311Z,8.30
2019-03-30T23:22:24.870Z,8.40
2019-03-30T23:24:57.399Z,8.20
2019-03-30T23:27:27.517Z,8.10
2019-03-30T23:30:03.461Z,8.10
2019-03-30T23:32:28.843Z,8.30
2019-03-30T23:34:58.860Z,8.10
2019-03-30T23:37:28.624Z,8.20
2019-03-30T23:39:58.186Z,8.30
2019-03-30T23:42:27.825Z,8.10
2019-03-30T23:44:57.740Z,8.20
2019-03-30T23:47:28.594Z,8.20
2019-03-30T23:50:01.543Z,8.20
2019-03-30T23:52:31.232Z,8.30
2019-03-30T23:55:02.094Z,8.30
2019-03-30T23:57:31.732Z,8.40
